sensor_id;sensor_type;location;lat;lon;timestamp;P1;durP1;ratioP1;P2;durP2;ratioP2
21122;SDS011;10719;48.130;11.630;2022-11-14T00:00:40;12.07;;;4.07;;
21122;SDS011;10719;48.130;11.630;2022-11-14T00:03:08;12.27;;;3.72;;
21122;SDS011;10719;48.130;11.630;2022-11-14T00:05:41;8.57;;;3.65;;
21122;SDS011;10719;48.130;11.630;2022-11-14T00:08:15;6.45;;;2.83;;
21122;SDS011;10719;48.130;11.630;2022-11-14T00:10:44;19.75;;;4.25;;
21122;SDS011;10719;48.130;11.630;2022-11-14T00:13:13;10.20;;;3.57;;
21122;SDS011;10719;48.130;11.630;2022-11-14T00:15:40;9.63;;;3.47;;
21122;SDS011;10719;48.130;11.630;2022-11-14T00:18:06;6.82;;;2.75;;
21122;SDS011;10719;48.130;11.630;2022-11-14T00:20:31;8.23;;;2.63;;
21122;SDS011;10719;48.130;11.630;2022-11-14T00:22:57;7.90;;;3.47;;
21122;SDS011;10719;48.130;11.630;2022-11-14T00:25:23;7.53;;;2.70;;
21122;SDS011;10719;48.130;11.630;2022-11-14T00:27:49;16.77;;;5.28;;
21122;SDS011;10719;48.130;11.630;2022-11-14T00:30:14;14.60;;;3.97;;
21122;SDS011;10719;48.130;11.630;2022-11-14T00:32:40;10.90;;;3.57;;
21122;SDS011;10719;48.130;11.630;2022-11-14T00:35:05;8.93;;;3.27;;
21122;SDS011;10719;48.130;11.630;2022-11-14T00:37:33;7.80;;;3.47;;
21122;SDS011;10719;48.130;11.630;2022-11-14T00:39:59;11.30;;;3.97;;
21122;SDS011;10719;48.130;11.630;2022-11-14T00:42:24;11.95;;;3.78;;
21122;SDS011;10719;48.130;11.630;2022-11-14T00:44:50;12.83;;;3.30;;
21122;SDS011;10719;48.130;11.630;2022-11-14T00:47:16;5.97;;;2.47;;
21122;SDS011;10719;48.130;11.630;2022-11-14T00:49:41;12.10;;;3.23;;
21122;SDS011;10719;48.130;11.630;2022-11-14T00:52:07;6.00;;;2.83;;
21122;SDS011;10719;48.130;11.630;2022-11-14T00:54:32;15.90;;;3.80;;
21122;SDS011;10719;48.130;11.630;2022-11-14T00:56:58;10.97;;;4.07;;
21122;SDS011;10719;48.130;11.630;2022-11-14T00:59:23;5.97;;;2.53;;
21122;SDS011;10719;48.130;11.630;2022-11-14T01:01:49;8.23;;;2.83;;
21122;SDS011;10719;48.130;11.630;2022-11-14T01:04:14;10.70;;;3.13;;
21122;SDS011;10719;48.130;11.630;2022-11-14T01:06:40;10.83;;;3.43;;
21122;SDS011;10719;48.130;11.630;2022-11-14T01:09:06;5.17;;;2.83;;
21122;SDS011;10719;48.130;11.630;2022-11-14T01:11:31;4.57;;;1.57;;
21122;SDS011;10719;48.130;11.630;2022-11-14T01:13:57;7.87;;;3.23;;
21122;SDS011;10719;48.130;11.630;2022-11-14T01:16:23;4.47;;;2.17;;
21122;SDS011;10719;48.130;11.630;2022-11-14T01:18:48;7.67;;;2.87;;
21122;SDS011;10719;48.130;11.630;2022-11-14T01:21:14;7.13;;;2.23;;
21122;SDS011;10719;48.130;11.630;2022-11-14T01:23:40;6.83;;;2.87;;
21122;SDS011;10719;48.130;11.630;2022-11-14T01:26:07;6.37;;;2.53;;
21122;SDS011;10719;48.130;11.630;2022-11-14T01:28:35;4.73;;;2.30;;
21122;SDS011;10719;48.130;11.630;2022-11-14T01:33:33;5.00;;;2.27;;
21122;SDS011;10719;48.130;11.630;2022-11-14T01:35:59;7.37;;;2.60;;
21122;SDS011;10719;48.130;11.630;2022-11-14T01:38:25;4.57;;;1.67;;
21122;SDS011;10719;48.130;11.630;2022-11-14T01:40:50;6.03;;;2.17;;
21122;SDS011;10719;48.130;11.630;2022-11-14T01:48:41;3.73;;;2.03;;
21122;SDS011;10719;48.130;11.630;2022-11-14T01:53:57;3.80;;;1.83;;
21122;SDS011;10719;48.130;11.630;2022-11-14T01:56:26;4.50;;;1.90;;
21122;SDS011;10719;48.130;11.630;2022-11-14T01:58:57;3.43;;;1.53;;
21122;SDS011;10719;48.130;11.630;2022-11-14T02:01:33;4.37;;;1.90;;
21122;SDS011;10719;48.130;11.630;2022-11-14T02:04:00;8.03;;;3.07;;
21122;SDS011;10719;48.130;11.630;2022-11-14T02:06:28;6.73;;;2.83;;
21122;SDS011;10719;48.130;11.630;2022-11-14T02:08:55;5.87;;;2.67;;
21122;SDS011;10719;48.130;11.630;2022-11-14T02:11:24;4.80;;;2.43;;
21122;SDS011;10719;48.130;11.630;2022-11-14T02:13:53;7.77;;;2.93;;
21122;SDS011;10719;48.130;11.630;2022-11-14T02:16:19;4.33;;;2.23;;
21122;SDS011;10719;48.130;11.630;2022-11-14T02:18:45;7.40;;;3.00;;
21122;SDS011;10719;48.130;11.630;2022-11-14T02:21:10;8.70;;;3.23;;
21122;SDS011;10719;48.130;11.630;2022-11-14T02:23:36;5.03;;;2.23;;
21122;SDS011;10719;48.130;11.630;2022-11-14T02:26:01;7.50;;;2.33;;
21122;SDS011;10719;48.130;11.630;2022-11-14T02:28:27;5.80;;;2.07;;
21122;SDS011;10719;48.130;11.630;2022-11-14T02:30:53;5.07;;;2.00;;
21122;SDS011;10719;48.130;11.630;2022-11-14T02:33:18;6.67;;;2.13;;
21122;SDS011;10719;48.130;11.630;2022-11-14T02:35:44;6.03;;;2.70;;
21122;SDS011;10719;48.130;11.630;2022-11-14T02:38:09;5.80;;;2.20;;
21122;SDS011;10719;48.130;11.630;2022-11-14T02:40:35;4.00;;;2.10;;
21122;SDS011;10719;48.130;11.630;2022-11-14T02:43:01;5.93;;;2.40;;
21122;SDS011;10719;48.130;11.630;2022-11-14T02:45:26;6.17;;;2.10;;
21122;SDS011;10719;48.130;11.630;2022-11-14T02:47:52;7.27;;;2.20;;
21122;SDS011;10719;48.130;11.630;2022-11-14T02:50:18;6.00;;;2.13;;
21122;SDS011;10719;48.130;11.630;2022-11-14T02:52:44;6.50;;;2.73;;
21122;SDS011;10719;48.130;11.630;2022-11-14T02:55:10;8.87;;;2.70;;
21122;SDS011;10719;48.130;11.630;2022-11-14T02:57:35;5.23;;;1.97;;
21122;SDS011;10719;48.130;11.630;2022-11-14T03:00:02;5.07;;;1.67;;
21122;SDS011;10719;48.130;11.630;2022-11-14T03:02:29;8.93;;;2.00;;
21122;SDS011;10719;48.130;11.630;2022-11-14T03:04:55;4.20;;;2.20;;
21122;SDS011;10719;48.130;11.630;2022-11-14T03:07:20;15.10;;;5.78;;
21122;SDS011;10719;48.130;11.630;2022-11-14T03:09:46;9.13;;;3.22;;
21122;SDS011;10719;48.130;11.630;2022-11-14T03:12:14;7.53;;;3.28;;
21122;SDS011;10719;48.130;11.630;2022-11-14T03:14:41;7.37;;;3.03;;
21122;SDS011;10719;48.130;11.630;2022-11-14T03:17:07;14.47;;;5.07;;
21122;SDS011;10719;48.130;11.630;2022-11-14T03:19:32;7.28;;;2.90;;
21122;SDS011;10719;48.130;11.630;2022-11-14T03:21:58;7.18;;;2.53;;
21122;SDS011;10719;48.130;11.630;2022-11-14T03:24:24;4.85;;;1.83;;
21122;SDS011;10719;48.130;11.630;2022-11-14T03:26:49;9.00;;;2.80;;
21122;SDS011;10719;48.130;11.630;2022-11-14T03:29:15;9.57;;;3.13;;
21122;SDS011;10719;48.130;11.630;2022-11-14T03:31:40;3.77;;;1.97;;
21122;SDS011;10719;48.130;11.630;2022-11-14T03:34:07;7.95;;;2.17;;
21122;SDS011;10719;48.130;11.630;2022-11-14T03:36:33;5.80;;;2.85;;
21122;SDS011;10719;48.130;11.630;2022-11-14T03:38:59;6.72;;;1.85;;
21122;SDS011;10719;48.130;11.630;2022-11-14T03:41:24;5.88;;;2.92;;
21122;SDS011;10719;48.130;11.630;2022-11-14T03:43:50;6.17;;;2.37;;
21122;SDS011;10719;48.130;11.630;2022-11-14T03:46:15;9.93;;;3.17;;
21122;SDS011;10719;48.130;11.630;2022-11-14T03:48:41;4.57;;;1.67;;
21122;SDS011;10719;48.130;11.630;2022-11-14T03:51:07;5.80;;;2.38;;
21122;SDS011;10719;48.130;11.630;2022-11-14T03:53:33;7.20;;;2.50;;
21122;SDS011;10719;48.130;11.630;2022-11-14T03:55:58;6.35;;;2.58;;
21122;SDS011;10719;48.130;11.630;2022-11-14T03:58:24;6.10;;;2.47;;
21122;SDS011;10719;48.130;11.630;2022-11-14T04:00:49;6.20;;;2.20;;
21122;SDS011;10719;48.130;11.630;2022-11-14T04:03:15;4.10;;;2.20;;
21122;SDS011;10719;48.130;11.630;2022-11-14T04:05:44;6.75;;;2.10;;
21122;SDS011;10719;48.130;11.630;2022-11-14T04:08:10;4.15;;;1.70;;
21122;SDS011;10719;48.130;11.630;2022-11-14T04:10:35;5.63;;;2.33;;
21122;SDS011;10719;48.130;11.630;2022-11-14T04:13:02;6.10;;;2.70;;
21122;SDS011;10719;48.130;11.630;2022-11-14T04:15:28;6.95;;;3.00;;
21122;SDS011;10719;48.130;11.630;2022-11-14T04:17:54;5.83;;;2.33;;
21122;SDS011;10719;48.130;11.630;2022-11-14T04:20:19;12.35;;;2.85;;
21122;SDS011;10719;48.130;11.630;2022-11-14T04:22:45;6.50;;;2.67;;
21122;SDS011;10719;48.130;11.630;2022-11-14T04:25:11;4.27;;;2.17;;
21122;SDS011;10719;48.130;11.630;2022-11-14T04:27:36;10.10;;;3.50;;
21122;SDS011;10719;48.130;11.630;2022-11-14T04:30:02;7.50;;;2.57;;
21122;SDS011;10719;48.130;11.630;2022-11-14T04:32:29;8.20;;;3.65;;
21122;SDS011;10719;48.130;11.630;2022-11-14T04:34:54;6.70;;;2.40;;
21122;SDS011;10719;48.130;11.630;2022-11-14T04:37:20;16.10;;;3.93;;
21122;SDS011;10719;48.130;11.630;2022-11-14T04:39:45;9.90;;;3.58;;
21122;SDS011;10719;48.130;11.630;2022-11-14T04:42:11;9.25;;;3.47;;
21122;SDS011;10719;48.130;11.630;2022-11-14T04:44:36;8.67;;;3.20;;
21122;SDS011;10719;48.130;11.630;2022-11-14T04:47:02;11.10;;;2.97;;
21122;SDS011;10719;48.130;11.630;2022-11-14T04:49:28;7.55;;;2.58;;
21122;SDS011;10719;48.130;11.630;2022-11-14T04:51:53;6.88;;;2.58;;
21122;SDS011;10719;48.130;11.630;2022-11-14T04:54:19;9.30;;;3.10;;
21122;SDS011;10719;48.130;11.630;2022-11-14T04:56:44;6.03;;;2.63;;
21122;SDS011;10719;48.130;11.630;2022-11-14T04:59:10;8.97;;;2.93;;
21122;SDS011;10719;48.130;11.630;2022-11-14T05:01:36;5.53;;;2.70;;
21122;SDS011;10719;48.130;11.630;2022-11-14T05:04:01;6.93;;;2.80;;
21122;SDS011;10719;48.130;11.630;2022-11-14T05:06:27;7.33;;;2.97;;
21122;SDS011;10719;48.130;11.630;2022-11-14T05:08:53;13.53;;;3.53;;
21122;SDS011;10719;48.130;11.630;2022-11-14T05:11:18;8.97;;;3.10;;
21122;SDS011;10719;48.130;11.630;2022-11-14T05:13:44;6.77;;;2.37;;
21122;SDS011;10719;48.130;11.630;2022-11-14T05:16:11;8.33;;;2.70;;
21122;SDS011;10719;48.130;11.630;2022-11-14T05:18:37;5.27;;;2.40;;
21122;SDS011;10719;48.130;11.630;2022-11-14T05:21:03;5.63;;;1.90;;
21122;SDS011;10719;48.130;11.630;2022-11-14T05:23:29;6.57;;;1.47;;
21122;SDS011;10719;48.130;11.630;2022-11-14T05:26:05;5.90;;;2.00;;
21122;SDS011;10719;48.130;11.630;2022-11-14T05:28:32;5.93;;;2.50;;
21122;SDS011;10719;48.130;11.630;2022-11-14T05:31:11;5.87;;;2.30;;
21122;SDS011;10719;48.130;11.630;2022-11-14T05:33:39;7.57;;;2.53;;
21122;SDS011;10719;48.130;11.630;2022-11-14T05:36:05;6.43;;;2.10;;
21122;SDS011;10719;48.130;11.630;2022-11-14T05:38:36;6.60;;;3.03;;
21122;SDS011;10719;48.130;11.630;2022-11-14T05:41:05;13.47;;;2.37;;
21122;SDS011;10719;48.130;11.630;2022-11-14T05:43:32;3.67;;;1.73;;
21122;SDS011;10719;48.130;11.630;2022-11-14T05:46:01;6.17;;;2.20;;
21122;SDS011;10719;48.130;11.630;2022-11-14T05:48:29;5.80;;;2.07;;
21122;SDS011;10719;48.130;11.630;2022-11-14T05:50:55;3.87;;;1.60;;
21122;SDS011;10719;48.130;11.630;2022-11-14T05:53:22;6.77;;;2.57;;
21122;SDS011;10719;48.130;11.630;2022-11-14T05:55:48;3.27;;;1.47;;
21122;SDS011;10719;48.130;11.630;2022-11-14T05:58:14;3.73;;;2.23;;
21122;SDS011;10719;48.130;11.630;2022-11-14T06:00:39;4.23;;;1.93;;
21122;SDS011;10719;48.130;11.630;2022-11-14T06:03:05;7.07;;;1.37;;
21122;SDS011;10719;48.130;11.630;2022-11-14T06:05:31;6.67;;;2.13;;
21122;SDS011;10719;48.130;11.630;2022-11-14T06:07:59;3.70;;;1.60;;
21122;SDS011;10719;48.130;11.630;2022-11-14T06:10:25;8.67;;;2.10;;
21122;SDS011;10719;48.130;11.630;2022-11-14T06:12:50;5.33;;;1.83;;
21122;SDS011;10719;48.130;11.630;2022-11-14T06:15:16;3.47;;;1.33;;
21122;SDS011;10719;48.130;11.630;2022-11-14T06:17:42;5.50;;;2.23;;
21122;SDS011;10719;48.130;11.630;2022-11-14T06:20:08;6.37;;;2.60;;
21122;SDS011;10719;48.130;11.630;2022-11-14T06:22:34;5.17;;;2.27;;
21122;SDS011;10719;48.130;11.630;2022-11-14T06:25:00;8.57;;;2.27;;
21122;SDS011;10719;48.130;11.630;2022-11-14T06:27:26;3.87;;;2.03;;
21122;SDS011;10719;48.130;11.630;2022-11-14T06:29:52;7.00;;;2.23;;
21122;SDS011;10719;48.130;11.630;2022-11-14T06:32:17;2.70;;;1.37;;
21122;SDS011;10719;48.130;11.630;2022-11-14T06:34:43;11.63;;;3.03;;
21122;SDS011;10719;48.130;11.630;2022-11-14T06:37:08;2.57;;;1.57;;
21122;SDS011;10719;48.130;11.630;2022-11-14T06:39:34;2.80;;;1.27;;
21122;SDS011;10719;48.130;11.630;2022-11-14T06:42:00;5.80;;;1.93;;
21122;SDS011;10719;48.130;11.630;2022-11-14T06:44:25;6.27;;;1.80;;
21122;SDS011;10719;48.130;11.630;2022-11-14T06:46:51;5.10;;;1.67;;
21122;SDS011;10719;48.130;11.630;2022-11-14T06:49:16;3.47;;;1.33;;
21122;SDS011;10719;48.130;11.630;2022-11-14T06:51:42;4.00;;;2.13;;
21122;SDS011;10719;48.130;11.630;2022-11-14T06:54:11;6.37;;;1.97;;
21122;SDS011;10719;48.130;11.630;2022-11-14T06:56:36;2.77;;;1.60;;
21122;SDS011;10719;48.130;11.630;2022-11-14T06:59:02;4.43;;;1.93;;
21122;SDS011;10719;48.130;11.630;2022-11-14T07:01:27;7.37;;;2.43;;
21122;SDS011;10719;48.130;11.630;2022-11-14T07:03:53;14.00;;;3.13;;
21122;SDS011;10719;48.130;11.630;2022-11-14T07:06:23;3.87;;;1.90;;
21122;SDS011;10719;48.130;11.630;2022-11-14T07:08:50;5.53;;;2.13;;
21122;SDS011;10719;48.130;11.630;2022-11-14T07:11:18;4.57;;;1.60;;
21122;SDS011;10719;48.130;11.630;2022-11-14T07:16:26;3.20;;;1.40;;
21122;SDS011;10719;48.130;11.630;2022-11-14T07:18:57;4.97;;;1.87;;
21122;SDS011;10719;48.130;11.630;2022-11-14T07:21:24;5.90;;;2.30;;
21122;SDS011;10719;48.130;11.630;2022-11-14T07:23:50;5.00;;;2.03;;
21122;SDS011;10719;48.130;11.630;2022-11-14T07:26:16;3.77;;;1.30;;
21122;SDS011;10719;48.130;11.630;2022-11-14T07:28:42;3.80;;;1.93;;
21122;SDS011;10719;48.130;11.630;2022-11-14T07:31:10;4.10;;;1.73;;
21122;SDS011;10719;48.130;11.630;2022-11-14T07:33:40;4.47;;;1.83;;
21122;SDS011;10719;48.130;11.630;2022-11-14T07:36:07;8.00;;;2.60;;
21122;SDS011;10719;48.130;11.630;2022-11-14T07:38:34;10.47;;;2.47;;
21122;SDS011;10719;48.130;11.630;2022-11-14T07:41:01;5.83;;;1.60;;
21122;SDS011;10719;48.130;11.630;2022-11-14T07:43:29;4.83;;;2.07;;
21122;SDS011;10719;48.130;11.630;2022-11-14T07:46:01;3.77;;;1.47;;
21122;SDS011;10719;48.130;11.630;2022-11-14T07:48:37;4.97;;;2.13;;
21122;SDS011;10719;48.130;11.630;2022-11-14T07:51:04;6.43;;;2.33;;
21122;SDS011;10719;48.130;11.630;2022-11-14T07:53:31;3.10;;;1.50;;
21122;SDS011;10719;48.130;11.630;2022-11-14T07:56:01;3.97;;;1.63;;
21122;SDS011;10719;48.130;11.630;2022-11-14T07:58:31;5.37;;;2.43;;
21122;SDS011;10719;48.130;11.630;2022-11-14T08:01:00;3.90;;;1.53;;
21122;SDS011;10719;48.130;11.630;2022-11-14T08:03:26;2.97;;;1.50;;
21122;SDS011;10719;48.130;11.630;2022-11-14T08:08:47;5.60;;;2.30;;
21122;SDS011;10719;48.130;11.630;2022-11-14T08:11:13;6.57;;;2.03;;
21122;SDS011;10719;48.130;11.630;2022-11-14T08:13:38;3.60;;;1.67;;
21122;SDS011;10719;48.130;11.630;2022-11-14T08:16:05;3.97;;;2.00;;
21122;SDS011;10719;48.130;11.630;2022-11-14T08:18:31;4.43;;;2.07;;
21122;SDS011;10719;48.130;11.630;2022-11-14T08:20:57;10.00;;;3.88;;
21122;SDS011;10719;48.130;11.630;2022-11-14T08:23:23;6.63;;;2.97;;
21122;SDS011;10719;48.130;11.630;2022-11-14T08:25:49;3.90;;;1.97;;
21122;SDS011;10719;48.130;11.630;2022-11-14T08:28:14;5.40;;;2.50;;
21122;SDS011;10719;48.130;11.630;2022-11-14T08:30:40;5.77;;;2.70;;
21122;SDS011;10719;48.130;11.630;2022-11-14T08:33:06;13.37;;;5.03;;
21122;SDS011;10719;48.130;11.630;2022-11-14T08:35:32;10.23;;;4.40;;
21122;SDS011;10719;48.130;11.630;2022-11-14T08:37:59;7.18;;;2.53;;
21122;SDS011;10719;48.130;11.630;2022-11-14T08:40:25;10.95;;;3.67;;
21122;SDS011;10719;48.130;11.630;2022-11-14T08:42:51;6.70;;;2.38;;
21122;SDS011;10719;48.130;11.630;2022-11-14T08:45:22;6.63;;;2.40;;
21122;SDS011;10719;48.130;11.630;2022-11-14T08:47:50;4.20;;;1.92;;
21122;SDS011;10719;48.130;11.630;2022-11-14T08:50:17;5.57;;;2.10;;
21122;SDS011;10719;48.130;11.630;2022-11-14T08:52:47;3.27;;;1.40;;
21122;SDS011;10719;48.130;11.630;2022-11-14T08:55:14;4.57;;;1.98;;
21122;SDS011;10719;48.130;11.630;2022-11-14T08:57:40;7.13;;;2.53;;
21122;SDS011;10719;48.130;11.630;2022-11-14T09:00:06;6.40;;;3.10;;
21122;SDS011;10719;48.130;11.630;2022-11-14T09:02:32;5.43;;;2.33;;
21122;SDS011;10719;48.130;11.630;2022-11-14T09:04:57;4.07;;;2.22;;
21122;SDS011;10719;48.130;11.630;2022-11-14T09:07:23;4.70;;;1.98;;
21122;SDS011;10719;48.130;11.630;2022-11-14T09:09:48;4.40;;;1.92;;
21122;SDS011;10719;48.130;11.630;2022-11-14T09:12:14;5.05;;;2.05;;
21122;SDS011;10719;48.130;11.630;2022-11-14T09:14:41;4.22;;;1.88;;
21122;SDS011;10719;48.130;11.630;2022-11-14T09:17:06;6.10;;;2.55;;
21122;SDS011;10719;48.130;11.630;2022-11-14T09:19:32;7.80;;;2.38;;
21122;SDS011;10719;48.130;11.630;2022-11-14T09:21:57;6.47;;;2.78;;
21122;SDS011;10719;48.130;11.630;2022-11-14T09:24:23;6.25;;;2.75;;
21122;SDS011;10719;48.130;11.630;2022-11-14T09:26:49;6.70;;;2.30;;
21122;SDS011;10719;48.130;11.630;2022-11-14T09:29:16;9.43;;;3.40;;
21122;SDS011;10719;48.130;11.630;2022-11-14T09:31:43;10.27;;;2.95;;
21122;SDS011;10719;48.130;11.630;2022-11-14T09:34:09;10.57;;;2.88;;
21122;SDS011;10719;48.130;11.630;2022-11-14T09:36:35;8.25;;;3.55;;
21122;SDS011;10719;48.130;11.630;2022-11-14T09:39:00;9.15;;;3.28;;
21122;SDS011;10719;48.130;11.630;2022-11-14T09:41:33;13.68;;;4.82;;
21122;SDS011;10719;48.130;11.630;2022-11-14T09:44:40;6.13;;;2.83;;
21122;SDS011;10719;48.130;11.630;2022-11-14T09:47:28;8.10;;;3.20;;
21122;SDS011;10719;48.130;11.630;2022-11-14T09:52:40;6.30;;;2.78;;
21122;SDS011;10719;48.130;11.630;2022-11-14T09:55:16;9.60;;;3.03;;
21122;SDS011;10719;48.130;11.630;2022-11-14T09:57:44;7.30;;;3.10;;
21122;SDS011;10719;48.130;11.630;2022-11-14T10:00:14;5.22;;;2.20;;
21122;SDS011;10719;48.130;11.630;2022-11-14T10:05:38;6.47;;;2.85;;
21122;SDS011;10719;48.130;11.630;2022-11-14T10:11:12;6.07;;;2.78;;
21122;SDS011;10719;48.130;11.630;2022-11-14T10:14:14;9.23;;;3.55;;
21122;SDS011;10719;48.130;11.630;2022-11-14T10:25:23;9.15;;;2.58;;
21122;SDS011;10719;48.130;11.630;2022-11-14T10:30:50;6.47;;;2.80;;
21122;SDS011;10719;48.130;11.630;2022-11-14T10:36:28;7.07;;;2.72;;
21122;SDS011;10719;48.130;11.630;2022-11-14T10:41:43;6.10;;;2.35;;
21122;SDS011;10719;48.130;11.630;2022-11-14T10:44:15;8.32;;;2.72;;
21122;SDS011;10719;48.130;11.630;2022-11-14T10:47:05;6.43;;;2.85;;
21122;SDS011;10719;48.130;11.630;2022-11-14T10:49:37;8.43;;;2.97;;
21122;SDS011;10719;48.130;11.630;2022-11-14T10:52:05;9.90;;;3.10;;
21122;SDS011;10719;48.130;11.630;2022-11-14T10:57:02;7.13;;;2.85;;
21122;SDS011;10719;48.130;11.630;2022-11-14T10:59:37;6.13;;;2.60;;
21122;SDS011;10719;48.130;11.630;2022-11-14T11:02:02;8.98;;;3.33;;
21122;SDS011;10719;48.130;11.630;2022-11-14T11:04:29;7.65;;;2.67;;
21122;SDS011;10719;48.130;11.630;2022-11-14T11:07:19;7.32;;;2.97;;
21122;SDS011;10719;48.130;11.630;2022-11-14T11:10:06;9.68;;;2.95;;
21122;SDS011;10719;48.130;11.630;2022-11-14T11:12:59;7.18;;;2.88;;
21122;SDS011;10719;48.130;11.630;2022-11-14T11:15:31;6.68;;;2.83;;
21122;SDS011;10719;48.130;11.630;2022-11-14T11:21:10;12.80;;;3.22;;
21122;SDS011;10719;48.130;11.630;2022-11-14T11:23:58;11.13;;;2.95;;
21122;SDS011;10719;48.130;11.630;2022-11-14T11:26:24;6.38;;;2.67;;
21122;SDS011;10719;48.130;11.630;2022-11-14T11:29:00;8.85;;;3.58;;
21122;SDS011;10719;48.130;11.630;2022-11-14T11:31:26;10.25;;;3.67;;
21122;SDS011;10719;48.130;11.630;2022-11-14T11:33:51;12.15;;;4.40;;
21122;SDS011;10719;48.130;11.630;2022-11-14T11:36:18;7.43;;;3.67;;
21122;SDS011;10719;48.130;11.630;2022-11-14T11:38:46;10.60;;;4.50;;
21122;SDS011;10719;48.130;11.630;2022-11-14T11:46:10;7.45;;;3.67;;
21122;SDS011;10719;48.130;11.630;2022-11-14T11:48:39;9.38;;;4.05;;
21122;SDS011;10719;48.130;11.630;2022-11-14T11:51:08;9.00;;;3.70;;
21122;SDS011;10719;48.130;11.630;2022-11-14T11:53:42;10.52;;;4.13;;
21122;SDS011;10719;48.130;11.630;2022-11-14T11:56:13;11.20;;;3.47;;
21122;SDS011;10719;48.130;11.630;2022-11-14T12:01:12;9.27;;;4.07;;
21122;SDS011;10719;48.130;11.630;2022-11-14T12:03:40;11.38;;;3.95;;
21122;SDS011;10719;48.130;11.630;2022-11-14T12:06:12;7.50;;;3.20;;
21122;SDS011;10719;48.130;11.630;2022-11-14T12:11:38;11.05;;;4.90;;
21122;SDS011;10719;48.130;11.630;2022-11-14T12:14:15;11.30;;;4.53;;
21122;SDS011;10719;48.130;11.630;2022-11-14T12:24:53;8.50;;;3.38;;
21122;SDS011;10719;48.130;11.630;2022-11-14T12:27:50;13.10;;;3.90;;
21122;SDS011;10719;48.130;11.630;2022-11-14T12:30:38;9.18;;;3.63;;
21122;SDS011;10719;48.130;11.630;2022-11-14T12:33:08;7.78;;;3.28;;
21122;SDS011;10719;48.130;11.630;2022-11-14T12:35:37;6.38;;;2.58;;
21122;SDS011;10719;48.130;11.630;2022-11-14T12:38:15;8.25;;;3.13;;
21122;SDS011;10719;48.130;11.630;2022-11-14T12:40:49;8.15;;;3.10;;
21122;SDS011;10719;48.130;11.630;2022-11-14T12:44:00;6.53;;;2.92;;
21122;SDS011;10719;48.130;11.630;2022-11-14T12:46:08;10.00;;;3.10;;
21122;SDS011;10719;48.130;11.630;2022-11-14T12:48:42;8.85;;;3.67;;
21122;SDS011;10719;48.130;11.630;2022-11-14T12:51:53;10.88;;;3.65;;
21122;SDS011;10719;48.130;11.630;2022-11-14T12:54:00;7.03;;;3.45;;
21122;SDS011;10719;48.130;11.630;2022-11-14T13:07:28;7.57;;;3.03;;
21122;SDS011;10719;48.130;11.630;2022-11-14T13:10:21;8.00;;;3.13;;
21122;SDS011;10719;48.130;11.630;2022-11-14T13:12:58;8.05;;;2.92;;
21122;SDS011;10719;48.130;11.630;2022-11-14T13:15:54;6.07;;;2.65;;
21122;SDS011;10719;48.130;11.630;2022-11-14T13:21:34;8.25;;;3.00;;
21122;SDS011;10719;48.130;11.630;2022-11-14T13:24:09;8.20;;;2.88;;
21122;SDS011;10719;48.130;11.630;2022-11-14T13:26:38;7.47;;;2.40;;
21122;SDS011;10719;48.130;11.630;2022-11-14T13:29:05;8.40;;;2.88;;
21122;SDS011;10719;48.130;11.630;2022-11-14T13:34:00;5.78;;;2.35;;
21122;SDS011;10719;48.130;11.630;2022-11-14T13:36:49;10.73;;;2.63;;
21122;SDS011;10719;48.130;11.630;2022-11-14T13:45:03;6.85;;;2.60;;
21122;SDS011;10719;48.130;11.630;2022-11-14T13:50:33;15.65;;;3.28;;
21122;SDS011;10719;48.130;11.630;2022-11-14T13:53:01;5.90;;;2.38;;
21122;SDS011;10719;48.130;11.630;2022-11-14T13:58:26;6.03;;;2.55;;
21122;SDS011;10719;48.130;11.630;2022-11-14T14:01:09;8.02;;;2.63;;
21122;SDS011;10719;48.130;11.630;2022-11-14T14:04:07;7.68;;;2.60;;
21122;SDS011;10719;48.130;11.630;2022-11-14T14:09:39;8.32;;;3.00;;
21122;SDS011;10719;48.130;11.630;2022-11-14T14:12:38;5.55;;;2.33;;
21122;SDS011;10719;48.130;11.630;2022-11-14T14:20:46;9.43;;;2.53;;
21122;SDS011;10719;48.130;11.630;2022-11-14T14:31:31;6.85;;;2.70;;
21122;SDS011;10719;48.130;11.630;2022-11-14T14:34:19;5.45;;;2.50;;
21122;SDS011;10719;48.130;11.630;2022-11-14T14:36:51;7.95;;;2.75;;
21122;SDS011;10719;48.130;11.630;2022-11-14T14:39:22;6.30;;;2.42;;
21122;SDS011;10719;48.130;11.630;2022-11-14T14:41:49;7.10;;;2.85;;
21122;SDS011;10719;48.130;11.630;2022-11-14T14:46:47;7.00;;;3.13;;
21122;SDS011;10719;48.130;11.630;2022-11-14T14:49:17;11.52;;;3.65;;
21122;SDS011;10719;48.130;11.630;2022-11-14T14:51:55;9.07;;;2.85;;
21122;SDS011;10719;48.130;11.630;2022-11-14T14:54:22;12.55;;;2.70;;
21122;SDS011;10719;48.130;11.630;2022-11-14T14:56:56;8.05;;;2.38;;
21122;SDS011;10719;48.130;11.630;2022-11-14T14:59:27;9.50;;;3.38;;
21122;SDS011;10719;48.130;11.630;2022-11-14T15:01:55;7.10;;;3.25;;
21122;SDS011;10719;48.130;11.630;2022-11-14T15:04:22;8.80;;;2.90;;
21122;SDS011;10719;48.130;11.630;2022-11-14T15:06:51;7.35;;;2.33;;
21122;SDS011;10719;48.130;11.630;2022-11-14T15:09:21;9.23;;;3.03;;
21122;SDS011;10719;48.130;11.630;2022-11-14T15:11:49;7.53;;;2.78;;
21122;SDS011;10719;48.130;11.630;2022-11-14T15:14:21;10.63;;;3.05;;
21122;SDS011;10719;48.130;11.630;2022-11-14T15:16:49;10.02;;;3.55;;
21122;SDS011;10719;48.130;11.630;2022-11-14T15:19:18;11.00;;;3.42;;
21122;SDS011;10719;48.130;11.630;2022-11-14T15:21:55;5.50;;;2.20;;
21122;SDS011;10719;48.130;11.630;2022-11-14T15:24:34;5.22;;;2.50;;
21122;SDS011;10719;48.130;11.630;2022-11-14T15:27:10;8.63;;;2.60;;
21122;SDS011;10719;48.130;11.630;2022-11-14T15:29:43;7.50;;;3.10;;
21122;SDS011;10719;48.130;11.630;2022-11-14T15:32:15;7.85;;;2.67;;
21122;SDS011;10719;48.130;11.630;2022-11-14T15:35:05;8.90;;;3.25;;
21122;SDS011;10719;48.130;11.630;2022-11-14T15:40:31;12.57;;;3.92;;
21122;SDS011;10719;48.130;11.630;2022-11-14T15:42:58;9.60;;;3.70;;
21122;SDS011;10719;48.130;11.630;2022-11-14T15:45:25;10.77;;;3.88;;
21122;SDS011;10719;48.130;11.630;2022-11-14T15:47:58;12.15;;;4.20;;
21122;SDS011;10719;48.130;11.630;2022-11-14T15:50:32;10.38;;;4.28;;
21122;SDS011;10719;48.130;11.630;2022-11-14T15:55:47;12.98;;;4.90;;
21122;SDS011;10719;48.130;11.630;2022-11-14T15:58:13;15.55;;;5.15;;
21122;SDS011;10719;48.130;11.630;2022-11-14T16:00:41;10.52;;;4.18;;
21122;SDS011;10719;48.130;11.630;2022-11-14T16:03:19;16.75;;;5.55;;
21122;SDS011;10719;48.130;11.630;2022-11-14T16:05:46;12.27;;;5.03;;
21122;SDS011;10719;48.130;11.630;2022-11-14T16:08:12;13.50;;;4.55;;
21122;SDS011;10719;48.130;11.630;2022-11-14T16:10:38;13.20;;;4.93;;
21122;SDS011;10719;48.130;11.630;2022-11-14T16:13:03;14.80;;;4.72;;
21122;SDS011;10719;48.130;11.630;2022-11-14T16:15:29;14.82;;;5.35;;
21122;SDS011;10719;48.130;11.630;2022-11-14T16:17:55;10.90;;;4.55;;
21122;SDS011;10719;48.130;11.630;2022-11-14T16:20:22;12.15;;;5.40;;
21122;SDS011;10719;48.130;11.630;2022-11-14T16:22:53;10.95;;;4.45;;
21122;SDS011;10719;48.130;11.630;2022-11-14T16:25:24;10.82;;;4.72;;
21122;SDS011;10719;48.130;11.630;2022-11-14T16:27:51;10.35;;;3.85;;
21122;SDS011;10719;48.130;11.630;2022-11-14T16:30:18;8.43;;;3.55;;
21122;SDS011;10719;48.130;11.630;2022-11-14T16:32:46;8.65;;;3.45;;
21122;SDS011;10719;48.130;11.630;2022-11-14T16:35:20;9.52;;;4.40;;
21122;SDS011;10719;48.130;11.630;2022-11-14T16:37:47;7.60;;;3.80;;
21122;SDS011;10719;48.130;11.630;2022-11-14T16:40:23;9.07;;;3.58;;